sensor_id;sensor_type;location;lat;lon;timestamp;P1;durP1;ratioP1;P2;durP2;ratioP2
2892;SDS011;1456;51.840;12.184;2022-12-13T00:01:45;0.63;;;0.63;;
2892;SDS011;1456;51.840;12.184;2022-12-13T00:04:14;0.87;;;0.87;;
2892;SDS011;1456;51.840;12.184;2022-12-13T00:09:12;0.40;;;0.40;;
2892;SDS011;1456;51.840;12.184;2022-12-13T00:11:39;0.67;;;0.67;;
2892;SDS011;1456;51.840;12.184;2022-12-13T00:14:06;0.80;;;0.60;;
2892;SDS011;1456;51.840;12.184;2022-12-13T00:16:31;0.50;;;0.50;;
2892;SDS011;1456;51.840;12.184;2022-12-13T00:19:03;0.97;;;0.80;;
2892;SDS011;1456;51.840;12.184;2022-12-13T00:21:29;0.90;;;0.90;;
2892;SDS011;1456;51.840;12.184;2022-12-13T00:23:57;0.73;;;0.73;;
2892;SDS011;1456;51.840;12.184;2022-12-13T00:26:25;0.40;;;0.40;;
2892;SDS011;1456;51.840;12.184;2022-12-13T00:28:53;0.50;;;0.50;;
2892;SDS011;1456;51.840;12.184;2022-12-13T00:33:49;0.70;;;0.70;;
2892;SDS011;1456;51.840;12.184;2022-12-13T00:36:16;1.43;;;1.43;;
2892;SDS011;1456;51.840;12.184;2022-12-13T00:38:42;0.40;;;0.40;;
2892;SDS011;1456;51.840;12.184;2022-12-13T00:41:11;0.30;;;0.30;;
2892;SDS011;1456;51.840;12.184;2022-12-13T00:43:39;0.87;;;0.87;;
2892;SDS011;1456;51.840;12.184;2022-12-13T00:46:11;0.50;;;0.50;;
2892;SDS011;1456;51.840;12.184;2022-12-13T00:48:40;0.60;;;0.60;;
2892;SDS011;1456;51.840;12.184;2022-12-13T00:51:09;0.60;;;0.60;;
2892;SDS011;1456;51.840;12.184;2022-12-13T00:53:36;1.33;;;1.33;;
2892;SDS011;1456;51.840;12.184;2022-12-13T00:56:03;0.40;;;0.40;;
2892;SDS011;1456;51.840;12.184;2022-12-13T00:58:35;0.40;;;0.40;;
2892;SDS011;1456;51.840;12.184;2022-12-13T01:01:01;0.40;;;0.40;;
2892;SDS011;1456;51.840;12.184;2022-12-13T01:03:28;0.90;;;0.90;;
2892;SDS011;1456;51.840;12.184;2022-12-13T01:05:55;1.10;;;1.10;;
2892;SDS011;1456;51.840;12.184;2022-12-13T01:08:20;3.57;;;3.40;;
2892;SDS011;1456;51.840;12.184;2022-12-13T01:10:55;0.60;;;0.60;;
2892;SDS011;1456;51.840;12.184;2022-12-13T01:13:24;0.70;;;0.70;;
2892;SDS011;1456;51.840;12.184;2022-12-13T01:15:52;0.90;;;0.90;;
2892;SDS011;1456;51.840;12.184;2022-12-13T01:18:17;1.43;;;1.40;;
2892;SDS011;1456;51.840;12.184;2022-12-13T01:21:07;0.50;;;0.50;;
2892;SDS011;1456;51.840;12.184;2022-12-13T01:23:33;0.40;;;0.40;;
2892;SDS011;1456;51.840;12.184;2022-12-13T01:26:03;0.60;;;0.60;;
2892;SDS011;1456;51.840;12.184;2022-12-13T01:28:31;1.40;;;1.20;;
2892;SDS011;1456;51.840;12.184;2022-12-13T01:30:59;0.30;;;0.30;;
2892;SDS011;1456;51.840;12.184;2022-12-13T01:33:26;0.70;;;0.70;;
2892;SDS011;1456;51.840;12.184;2022-12-13T01:35:52;0.97;;;0.97;;
2892;SDS011;1456;51.840;12.184;2022-12-13T01:38:19;0.80;;;0.80;;
2892;SDS011;1456;51.840;12.184;2022-12-13T01:40:46;0.80;;;0.80;;
2892;SDS011;1456;51.840;12.184;2022-12-13T01:43:15;0.40;;;0.40;;
2892;SDS011;1456;51.840;12.184;2022-12-13T01:45:45;0.50;;;0.50;;
2892;SDS011;1456;51.840;12.184;2022-12-13T01:48:14;0.40;;;0.40;;
2892;SDS011;1456;51.840;12.184;2022-12-13T01:50:47;0.40;;;0.40;;
2892;SDS011;1456;51.840;12.184;2022-12-13T01:53:18;0.70;;;0.70;;
2892;SDS011;1456;51.840;12.184;2022-12-13T01:56:00;0.50;;;0.50;;
2892;SDS011;1456;51.840;12.184;2022-12-13T01:58:37;1.17;;;1.17;;
2892;SDS011;1456;51.840;12.184;2022-12-13T02:01:06;2.10;;;1.47;;
2892;SDS011;1456;51.840;12.184;2022-12-13T02:03:33;1.13;;;1.03;;
2892;SDS011;1456;51.840;12.184;2022-12-13T02:06:06;1.27;;;1.27;;
2892;SDS011;1456;51.840;12.184;2022-12-13T02:08:36;0.60;;;0.60;;
2892;SDS011;1456;51.840;12.184;2022-12-13T02:11:04;1.70;;;1.60;;
2892;SDS011;1456;51.840;12.184;2022-12-13T02:13:31;0.60;;;0.60;;
2892;SDS011;1456;51.840;12.184;2022-12-13T02:21:46;1.43;;;1.43;;
2892;SDS011;1456;51.840;12.184;2022-12-13T02:26:54;0.97;;;0.97;;
2892;SDS011;1456;51.840;12.184;2022-12-13T02:35:41;0.50;;;0.50;;
2892;SDS011;1456;51.840;12.184;2022-12-13T02:43:57;1.13;;;1.13;;
2892;SDS011;1456;51.840;12.184;2022-12-13T02:46:28;0.40;;;0.40;;
2892;SDS011;1456;51.840;12.184;2022-12-13T02:49:00;0.47;;;0.47;;
2892;SDS011;1456;51.840;12.184;2022-12-13T02:51:28;1.63;;;1.53;;
2892;SDS011;1456;51.840;12.184;2022-12-13T02:53:56;0.40;;;0.40;;
2892;SDS011;1456;51.840;12.184;2022-12-13T02:56:21;3.90;;;1.37;;
2892;SDS011;1456;51.840;12.184;2022-12-13T02:58:51;0.60;;;0.60;;
2892;SDS011;1456;51.840;12.184;2022-12-13T03:07:02;1.00;;;1.00;;
2892;SDS011;1456;51.840;12.184;2022-12-13T03:12:28;2.10;;;1.90;;
2892;SDS011;1456;51.840;12.184;2022-12-13T03:21:05;2.87;;;2.80;;
2892;SDS011;1456;51.840;12.184;2022-12-13T03:23:33;1.80;;;1.70;;
2892;SDS011;1456;51.840;12.184;2022-12-13T03:28:47;0.80;;;0.80;;
2892;SDS011;1456;51.840;12.184;2022-12-13T03:31:14;1.57;;;1.47;;
2892;SDS011;1456;51.840;12.184;2022-12-13T03:33:39;1.60;;;1.57;;
2892;SDS011;1456;51.840;12.184;2022-12-13T03:36:06;0.50;;;0.50;;
2892;SDS011;1456;51.840;12.184;2022-12-13T03:41:06;3.33;;;3.23;;
2892;SDS011;1456;51.840;12.184;2022-12-13T03:43:37;1.70;;;1.60;;
2892;SDS011;1456;51.840;12.184;2022-12-13T03:46:04;2.07;;;2.00;;
2892;SDS011;1456;51.840;12.184;2022-12-13T03:48:31;0.60;;;0.60;;
2892;SDS011;1456;51.840;12.184;2022-12-13T03:51:13;0.93;;;0.93;;
2892;SDS011;1456;51.840;12.184;2022-12-13T03:56:12;2.63;;;1.00;;
2892;SDS011;1456;51.840;12.184;2022-12-13T03:58:37;1.43;;;0.93;;
2892;SDS011;1456;51.840;12.184;2022-12-13T04:01:13;0.70;;;0.70;;
2892;SDS011;1456;51.840;12.184;2022-12-13T04:03:41;0.70;;;0.70;;
2892;SDS011;1456;51.840;12.184;2022-12-13T04:06:08;0.60;;;0.60;;
2892;SDS011;1456;51.840;12.184;2022-12-13T04:08:35;0.53;;;0.53;;
2892;SDS011;1456;51.840;12.184;2022-12-13T04:11:08;1.43;;;1.43;;
2892;SDS011;1456;51.840;12.184;2022-12-13T04:13:53;1.50;;;1.43;;
2892;SDS011;1456;51.840;12.184;2022-12-13T04:16:20;2.00;;;1.90;;
2892;SDS011;1456;51.840;12.184;2022-12-13T04:18:47;1.20;;;1.10;;
2892;SDS011;1456;51.840;12.184;2022-12-13T04:21:14;7.37;;;1.53;;
2892;SDS011;1456;51.840;12.184;2022-12-13T04:23:40;1.03;;;1.00;;
2892;SDS011;1456;51.840;12.184;2022-12-13T04:26:06;0.50;;;0.50;;
2892;SDS011;1456;51.840;12.184;2022-12-13T04:28:33;1.67;;;1.63;;
2892;SDS011;1456;51.840;12.184;2022-12-13T04:30:59;0.50;;;0.50;;
2892;SDS011;1456;51.840;12.184;2022-12-13T04:33:26;1.13;;;1.13;;
2892;SDS011;1456;51.840;12.184;2022-12-13T04:35:51;1.37;;;1.27;;
2892;SDS011;1456;51.840;12.184;2022-12-13T04:38:19;1.87;;;1.77;;
2892;SDS011;1456;51.840;12.184;2022-12-13T04:40:46;2.33;;;2.23;;
2892;SDS011;1456;51.840;12.184;2022-12-13T04:43:14;0.63;;;0.63;;
2892;SDS011;1456;51.840;12.184;2022-12-13T04:45:41;1.17;;;1.17;;
2892;SDS011;1456;51.840;12.184;2022-12-13T04:48:06;1.23;;;1.17;;
2892;SDS011;1456;51.840;12.184;2022-12-13T04:50:33;1.33;;;1.33;;
2892;SDS011;1456;51.840;12.184;2022-12-13T04:53:00;1.53;;;1.43;;
2892;SDS011;1456;51.840;12.184;2022-12-13T04:55:25;3.03;;;2.93;;
2892;SDS011;1456;51.840;12.184;2022-12-13T04:57:51;3.57;;;3.27;;
2892;SDS011;1456;51.840;12.184;2022-12-13T05:00:17;0.50;;;0.50;;
2892;SDS011;1456;51.840;12.184;2022-12-13T05:02:45;1.90;;;1.80;;
2892;SDS011;1456;51.840;12.184;2022-12-13T05:05:22;1.17;;;1.17;;
2892;SDS011;1456;51.840;12.184;2022-12-13T05:07:50;2.13;;;2.13;;
2892;SDS011;1456;51.840;12.184;2022-12-13T05:10:16;1.80;;;1.80;;
2892;SDS011;1456;51.840;12.184;2022-12-13T05:12:43;1.87;;;1.77;;
2892;SDS011;1456;51.840;12.184;2022-12-13T05:15:10;1.17;;;1.17;;
2892;SDS011;1456;51.840;12.184;2022-12-13T05:17:36;1.10;;;1.10;;
2892;SDS011;1456;51.840;12.184;2022-12-13T05:20:02;2.17;;;2.07;;
2892;SDS011;1456;51.840;12.184;2022-12-13T05:22:29;2.87;;;2.77;;
2892;SDS011;1456;51.840;12.184;2022-12-13T05:24:58;0.63;;;0.63;;
2892;SDS011;1456;51.840;12.184;2022-12-13T05:27:23;3.33;;;3.20;;
2892;SDS011;1456;51.840;12.184;2022-12-13T05:29:50;0.60;;;0.60;;
2892;SDS011;1456;51.840;12.184;2022-12-13T05:32:17;1.40;;;1.40;;
2892;SDS011;1456;51.840;12.184;2022-12-13T05:34:42;1.80;;;1.80;;
2892;SDS011;1456;51.840;12.184;2022-12-13T05:37:09;0.60;;;0.60;;
2892;SDS011;1456;51.840;12.184;2022-12-13T05:39:35;2.27;;;2.20;;
2892;SDS011;1456;51.840;12.184;2022-12-13T05:42:01;4.00;;;2.60;;
2892;SDS011;1456;51.840;12.184;2022-12-13T05:44:30;0.63;;;0.63;;
2892;SDS011;1456;51.840;12.184;2022-12-13T05:47:02;3.37;;;3.27;;
2892;SDS011;1456;51.840;12.184;2022-12-13T05:49:30;3.30;;;3.10;;
2892;SDS011;1456;51.840;12.184;2022-12-13T05:51:56;3.00;;;2.80;;
2892;SDS011;1456;51.840;12.184;2022-12-13T05:54:21;3.07;;;2.13;;
2892;SDS011;1456;51.840;12.184;2022-12-13T05:56:47;1.00;;;1.00;;
2892;SDS011;1456;51.840;12.184;2022-12-13T05:59:14;1.73;;;1.73;;
2892;SDS011;1456;51.840;12.184;2022-12-13T06:01:40;1.43;;;1.43;;
2892;SDS011;1456;51.840;12.184;2022-12-13T06:04:06;2.57;;;2.47;;
2892;SDS011;1456;51.840;12.184;2022-12-13T06:06:31;1.27;;;1.27;;
2892;SDS011;1456;51.840;12.184;2022-12-13T06:08:58;1.03;;;1.03;;
2892;SDS011;1456;51.840;12.184;2022-12-13T06:11:24;2.47;;;2.37;;
2892;SDS011;1456;51.840;12.184;2022-12-13T06:13:51;0.80;;;0.80;;
2892;SDS011;1456;51.840;12.184;2022-12-13T06:16:17;2.30;;;0.90;;
2892;SDS011;1456;51.840;12.184;2022-12-13T06:18:45;2.10;;;2.00;;
2892;SDS011;1456;51.840;12.184;2022-12-13T06:21:11;0.60;;;0.60;;
2892;SDS011;1456;51.840;12.184;2022-12-13T06:23:36;1.03;;;0.80;;
2892;SDS011;1456;51.840;12.184;2022-12-13T06:26:03;1.13;;;1.07;;
2892;SDS011;1456;51.840;12.184;2022-12-13T06:28:30;1.17;;;1.17;;
2892;SDS011;1456;51.840;12.184;2022-12-13T06:30:59;3.00;;;1.07;;
2892;SDS011;1456;51.840;12.184;2022-12-13T06:33:27;0.50;;;0.50;;
2892;SDS011;1456;51.840;12.184;2022-12-13T06:35:56;2.70;;;2.60;;
2892;SDS011;1456;51.840;12.184;2022-12-13T06:38:25;1.17;;;1.17;;
2892;SDS011;1456;51.840;12.184;2022-12-13T06:40:52;1.10;;;1.10;;
2892;SDS011;1456;51.840;12.184;2022-12-13T06:43:18;0.50;;;0.50;;
2892;SDS011;1456;51.840;12.184;2022-12-13T06:45:44;4.63;;;4.30;;
2892;SDS011;1456;51.840;12.184;2022-12-13T06:48:18;1.80;;;1.60;;
2892;SDS011;1456;51.840;12.184;2022-12-13T06:50:44;3.63;;;3.13;;
2892;SDS011;1456;51.840;12.184;2022-12-13T06:53:10;2.40;;;2.30;;
2892;SDS011;1456;51.840;12.184;2022-12-13T06:55:38;1.93;;;1.93;;
2892;SDS011;1456;51.840;12.184;2022-12-13T06:58:05;1.27;;;1.27;;
2892;SDS011;1456;51.840;12.184;2022-12-13T07:00:31;3.83;;;3.53;;
2892;SDS011;1456;51.840;12.184;2022-12-13T07:02:57;2.00;;;1.90;;
2892;SDS011;1456;51.840;12.184;2022-12-13T07:07:53;2.27;;;2.17;;
2892;SDS011;1456;51.840;12.184;2022-12-13T07:10:19;3.47;;;2.50;;
2892;SDS011;1456;51.840;12.184;2022-12-13T07:12:45;2.00;;;1.50;;
2892;SDS011;1456;51.840;12.184;2022-12-13T07:15:11;2.00;;;1.90;;
2892;SDS011;1456;51.840;12.184;2022-12-13T07:20:07;3.13;;;2.07;;
2892;SDS011;1456;51.840;12.184;2022-12-13T07:22:36;1.80;;;1.80;;
2892;SDS011;1456;51.840;12.184;2022-12-13T07:25:04;3.23;;;3.13;;
2892;SDS011;1456;51.840;12.184;2022-12-13T07:27:40;2.77;;;1.63;;
2892;SDS011;1456;51.840;12.184;2022-12-13T07:30:07;0.63;;;0.63;;
2892;SDS011;1456;51.840;12.184;2022-12-13T07:32:33;0.87;;;0.87;;
2892;SDS011;1456;51.840;12.184;2022-12-13T07:35:01;3.00;;;2.13;;
2892;SDS011;1456;51.840;12.184;2022-12-13T07:37:30;2.80;;;2.70;;
2892;SDS011;1456;51.840;12.184;2022-12-13T07:39:57;2.93;;;2.83;;
2892;SDS011;1456;51.840;12.184;2022-12-13T07:42:31;1.03;;;1.03;;
2892;SDS011;1456;51.840;12.184;2022-12-13T07:45:03;14.50;;;3.20;;
2892;SDS011;1456;51.840;12.184;2022-12-13T07:47:29;1.43;;;1.43;;
2892;SDS011;1456;51.840;12.184;2022-12-13T07:50:00;1.93;;;1.93;;
2892;SDS011;1456;51.840;12.184;2022-12-13T07:52:26;1.97;;;1.87;;
2892;SDS011;1456;51.840;12.184;2022-12-13T07:54:52;2.50;;;1.93;;
2892;SDS011;1456;51.840;12.184;2022-12-13T07:57:18;5.03;;;4.67;;
2892;SDS011;1456;51.840;12.184;2022-12-13T07:59:44;2.43;;;2.33;;
2892;SDS011;1456;51.840;12.184;2022-12-13T08:02:12;2.30;;;2.20;;
2892;SDS011;1456;51.840;12.184;2022-12-13T08:04:38;2.90;;;2.73;;
2892;SDS011;1456;51.840;12.184;2022-12-13T08:07:06;1.97;;;1.87;;
2892;SDS011;1456;51.840;12.184;2022-12-13T08:09:33;5.53;;;3.90;;
2892;SDS011;1456;51.840;12.184;2022-12-13T08:12:00;1.13;;;1.13;;
2892;SDS011;1456;51.840;12.184;2022-12-13T08:14:33;2.93;;;2.00;;
2892;SDS011;1456;51.840;12.184;2022-12-13T08:16:59;3.23;;;3.03;;
2892;SDS011;1456;51.840;12.184;2022-12-13T08:19:25;2.07;;;1.97;;
2892;SDS011;1456;51.840;12.184;2022-12-13T08:21:50;4.00;;;3.70;;
2892;SDS011;1456;51.840;12.184;2022-12-13T08:24:26;8.03;;;3.67;;
2892;SDS011;1456;51.840;12.184;2022-12-13T08:26:54;2.77;;;2.00;;
2892;SDS011;1456;51.840;12.184;2022-12-13T08:29:27;2.23;;;2.13;;
2892;SDS011;1456;51.840;12.184;2022-12-13T08:31:55;5.10;;;4.87;;
2892;SDS011;1456;51.840;12.184;2022-12-13T08:34:21;1.37;;;1.37;;
2892;SDS011;1456;51.840;12.184;2022-12-13T08:36:47;1.23;;;1.23;;
2892;SDS011;1456;51.840;12.184;2022-12-13T08:39:13;3.43;;;3.13;;
2892;SDS011;1456;51.840;12.184;2022-12-13T08:41:41;0.60;;;0.60;;
2892;SDS011;1456;51.840;12.184;2022-12-13T08:44:12;1.27;;;1.27;;
2892;SDS011;1456;51.840;12.184;2022-12-13T08:46:38;6.90;;;4.57;;
2892;SDS011;1456;51.840;12.184;2022-12-13T08:49:03;1.80;;;1.57;;
2892;SDS011;1456;51.840;12.184;2022-12-13T08:51:29;1.10;;;1.10;;
2892;SDS011;1456;51.840;12.184;2022-12-13T08:53:55;0.83;;;0.83;;
2892;SDS011;1456;51.840;12.184;2022-12-13T08:56:21;1.57;;;1.47;;
2892;SDS011;1456;51.840;12.184;2022-12-13T08:58:50;0.30;;;0.30;;
2892;SDS011;1456;51.840;12.184;2022-12-13T09:01:17;0.93;;;0.93;;
2892;SDS011;1456;51.840;12.184;2022-12-13T09:03:43;1.27;;;1.27;;
2892;SDS011;1456;51.840;12.184;2022-12-13T09:06:10;1.40;;;1.40;;
2892;SDS011;1456;51.840;12.184;2022-12-13T09:08:40;0.87;;;0.87;;
2892;SDS011;1456;51.840;12.184;2022-12-13T09:11:15;0.30;;;0.30;;
2892;SDS011;1456;51.840;12.184;2022-12-13T09:13:43;1.83;;;1.83;;
2892;SDS011;1456;51.840;12.184;2022-12-13T09:16:13;2.23;;;2.10;;
2892;SDS011;1456;51.840;12.184;2022-12-13T09:18:40;1.80;;;1.70;;
2892;SDS011;1456;51.840;12.184;2022-12-13T09:21:10;0.80;;;0.60;;
2892;SDS011;1456;51.840;12.184;2022-12-13T09:23:38;0.80;;;0.80;;
2892;SDS011;1456;51.840;12.184;2022-12-13T09:26:10;1.27;;;1.27;;
2892;SDS011;1456;51.840;12.184;2022-12-13T09:28:37;1.80;;;1.73;;
2892;SDS011;1456;51.840;12.184;2022-12-13T09:31:13;0.40;;;0.40;;
2892;SDS011;1456;51.840;12.184;2022-12-13T09:33:45;0.93;;;0.93;;
2892;SDS011;1456;51.840;12.184;2022-12-13T09:36:15;0.50;;;0.50;;
2892;SDS011;1456;51.840;12.184;2022-12-13T09:38:44;0.40;;;0.40;;
2892;SDS011;1456;51.840;12.184;2022-12-13T09:44:00;0.30;;;0.30;;
2892;SDS011;1456;51.840;12.184;2022-12-13T09:48:59;1.07;;;1.07;;
2892;SDS011;1456;51.840;12.184;2022-12-13T09:51:30;0.30;;;0.30;;
2892;SDS011;1456;51.840;12.184;2022-12-13T09:53:58;0.80;;;0.80;;
2892;SDS011;1456;51.840;12.184;2022-12-13T09:56:25;0.67;;;0.67;;
2892;SDS011;1456;51.840;12.184;2022-12-13T09:58:52;0.80;;;0.80;;
2892;SDS011;1456;51.840;12.184;2022-12-13T10:01:20;0.80;;;0.80;;
2892;SDS011;1456;51.840;12.184;2022-12-13T10:03:48;0.30;;;0.30;;
2892;SDS011;1456;51.840;12.184;2022-12-13T10:06:17;0.30;;;0.30;;
2892;SDS011;1456;51.840;12.184;2022-12-13T10:08:50;0.50;;;0.50;;
2892;SDS011;1456;51.840;12.184;2022-12-13T10:11:21;1.03;;;0.97;;
2892;SDS011;1456;51.840;12.184;2022-12-13T10:19:00;0.60;;;0.60;;
2892;SDS011;1456;51.840;12.184;2022-12-13T10:21:36;0.80;;;0.80;;
2892;SDS011;1456;51.840;12.184;2022-12-13T10:24:12;0.50;;;0.50;;
2892;SDS011;1456;51.840;12.184;2022-12-13T10:26:40;0.73;;;0.57;;
2892;SDS011;1456;51.840;12.184;2022-12-13T10:29:07;1.70;;;1.07;;
2892;SDS011;1456;51.840;12.184;2022-12-13T10:34:36;0.87;;;0.73;;
2892;SDS011;1456;51.840;12.184;2022-12-13T10:39:49;1.00;;;1.00;;
2892;SDS011;1456;51.840;12.184;2022-12-13T10:42:19;0.87;;;0.87;;
2892;SDS011;1456;51.840;12.184;2022-12-13T10:45:07;0.70;;;0.60;;
2892;SDS011;1456;51.840;12.184;2022-12-13T10:47:43;0.87;;;0.87;;
2892;SDS011;1456;51.840;12.184;2022-12-13T10:50:20;0.40;;;0.40;;
2892;SDS011;1456;51.840;12.184;2022-12-13T10:52:48;1.50;;;1.30;;
2892;SDS011;1456;51.840;12.184;2022-12-13T10:55:34;0.70;;;0.33;;
2892;SDS011;1456;51.840;12.184;2022-12-13T10:58:04;1.47;;;0.43;;
2892;SDS011;1456;51.840;12.184;2022-12-13T11:00:39;0.33;;;0.33;;
2892;SDS011;1456;51.840;12.184;2022-12-13T11:03:11;0.20;;;0.20;;
2892;SDS011;1456;51.840;12.184;2022-12-13T11:06:00;0.30;;;0.30;;
2892;SDS011;1456;51.840;12.184;2022-12-13T11:08:31;1.90;;;1.03;;
2892;SDS011;1456;51.840;12.184;2022-12-13T11:10:58;1.17;;;1.17;;
2892;SDS011;1456;51.840;12.184;2022-12-13T11:13:45;1.33;;;0.70;;
2892;SDS011;1456;51.840;12.184;2022-12-13T11:16:21;0.97;;;0.80;;
2892;SDS011;1456;51.840;12.184;2022-12-13T11:19:10;0.40;;;0.40;;
2892;SDS011;1456;51.840;12.184;2022-12-13T11:21:46;1.17;;;1.17;;
2892;SDS011;1456;51.840;12.184;2022-12-13T11:24:19;1.37;;;1.30;;
2892;SDS011;1456;51.840;12.184;2022-12-13T11:26:56;2.20;;;2.00;;
2892;SDS011;1456;51.840;12.184;2022-12-13T11:29:34;0.73;;;0.73;;
2892;SDS011;1456;51.840;12.184;2022-12-13T11:34:43;0.40;;;0.40;;
2892;SDS011;1456;51.840;12.184;2022-12-13T11:42:48;2.10;;;1.37;;
2892;SDS011;1456;51.840;12.184;2022-12-13T11:48:04;0.33;;;0.33;;
2892;SDS011;1456;51.840;12.184;2022-12-13T11:50:47;1.13;;;1.13;;
2892;SDS011;1456;51.840;12.184;2022-12-13T11:53:29;0.40;;;0.40;;
2892;SDS011;1456;51.840;12.184;2022-12-13T11:56:37;0.50;;;0.50;;
2892;SDS011;1456;51.840;12.184;2022-12-13T12:12:49;3.03;;;2.93;;
2892;SDS011;1456;51.840;12.184;2022-12-13T12:17:57;1.63;;;1.63;;
2892;SDS011;1456;51.840;12.184;2022-12-13T12:20:32;2.07;;;1.87;;
2892;SDS011;1456;51.840;12.184;2022-12-13T12:25:56;3.23;;;3.23;;
2892;SDS011;1456;51.840;12.184;2022-12-13T12:43:09;5.03;;;4.93;;
2892;SDS011;1456;51.840;12.184;2022-12-13T12:55:15;6.00;;;6.00;;
2892;SDS011;1456;51.840;12.184;2022-12-13T13:03:45;5.20;;;5.20;;
2892;SDS011;1456;51.840;12.184;2022-12-13T13:08:41;5.23;;;5.13;;
2892;SDS011;1456;51.840;12.184;2022-12-13T13:11:12;5.13;;;5.07;;
2892;SDS011;1456;51.840;12.184;2022-12-13T13:13:46;5.63;;;5.57;;
2892;SDS011;1456;51.840;12.184;2022-12-13T13:16:27;6.60;;;6.50;;
2892;SDS011;1456;51.840;12.184;2022-12-13T13:19:00;7.67;;;7.53;;
2892;SDS011;1456;51.840;12.184;2022-12-13T13:24:05;5.27;;;5.27;;
2892;SDS011;1456;51.840;12.184;2022-12-13T13:26:44;6.73;;;6.63;;
2892;SDS011;1456;51.840;12.184;2022-12-13T13:31:56;6.07;;;6.07;;
2892;SDS011;1456;51.840;12.184;2022-12-13T13:34:25;7.87;;;7.77;;
2892;SDS011;1456;51.840;12.184;2022-12-13T13:36:57;7.70;;;7.50;;
2892;SDS011;1456;51.840;12.184;2022-12-13T13:47:13;6.20;;;6.20;;
2892;SDS011;1456;51.840;12.184;2022-12-13T13:52:56;8.33;;;8.13;;
2892;SDS011;1456;51.840;12.184;2022-12-13T13:58:26;13.23;;;12.00;;
2892;SDS011;1456;51.840;12.184;2022-12-13T14:07:42;7.20;;;7.10;;
2892;SDS011;1456;51.840;12.184;2022-12-13T14:12:57;8.33;;;8.13;;
2892;SDS011;1456;51.840;12.184;2022-12-13T14:15:58;4.87;;;4.87;;
2892;SDS011;1456;51.840;12.184;2022-12-13T14:29:43;3.43;;;3.43;;
2892;SDS011;1456;51.840;12.184;2022-12-13T14:32:09;4.43;;;4.33;;
2892;SDS011;1456;51.840;12.184;2022-12-13T14:34:51;2.50;;;2.50;;
2892;SDS011;1456;51.840;12.184;2022-12-13T14:37:28;1.80;;;1.80;;
2892;SDS011;1456;51.840;12.184;2022-12-13T14:39:56;3.00;;;3.00;;
2892;SDS011;1456;51.840;12.184;2022-12-13T14:47:49;1.00;;;1.00;;
2892;SDS011;1456;51.840;12.184;2022-12-13T14:50:20;1.53;;;1.53;;
2892;SDS011;1456;51.840;12.184;2022-12-13T14:52:51;1.00;;;1.00;;
2892;SDS011;1456;51.840;12.184;2022-12-13T14:55:32;0.97;;;0.97;;
2892;SDS011;1456;51.840;12.184;2022-12-13T14:58:02;1.40;;;1.40;;
2892;SDS011;1456;51.840;12.184;2022-12-13T15:00:39;0.90;;;0.90;;
2892;SDS011;1456;51.840;12.184;2022-12-13T15:03:10;0.80;;;0.80;;
2892;SDS011;1456;51.840;12.184;2022-12-13T15:05:52;1.60;;;1.60;;
2892;SDS011;1456;51.840;12.184;2022-12-13T15:08:20;2.10;;;2.10;;
2892;SDS011;1456;51.840;12.184;2022-12-13T15:10:52;1.33;;;1.33;;
2892;SDS011;1456;51.840;12.184;2022-12-13T15:15:59;0.70;;;0.70;;
2892;SDS011;1456;51.840;12.184;2022-12-13T15:18:27;0.80;;;0.80;;
2892;SDS011;1456;51.840;12.184;2022-12-13T15:20:54;1.33;;;1.33;;
2892;SDS011;1456;51.840;12.184;2022-12-13T15:25:57;15.87;;;2.70;;
2892;SDS011;1456;51.840;12.184;2022-12-13T15:28:38;0.80;;;0.80;;
2892;SDS011;1456;51.840;12.184;2022-12-13T15:31:11;2.70;;;1.43;;
2892;SDS011;1456;51.840;12.184;2022-12-13T15:33:40;1.80;;;0.83;;
2892;SDS011;1456;51.840;12.184;2022-12-13T15:36:22;9.73;;;1.33;;
2892;SDS011;1456;51.840;12.184;2022-12-13T15:41:24;1.50;;;1.50;;
2892;SDS011;1456;51.840;12.184;2022-12-13T15:43:57;2.50;;;1.73;;
2892;SDS011;1456;51.840;12.184;2022-12-13T15:46:48;0.80;;;0.80;;
2892;SDS011;1456;51.840;12.184;2022-12-13T15:49:21;1.07;;;1.07;;
2892;SDS011;1456;51.840;12.184;2022-12-13T15:51:58;0.40;;;0.40;;
2892;SDS011;1456;51.840;12.184;2022-12-13T15:54:30;0.50;;;0.50;;
2892;SDS011;1456;51.840;12.184;2022-12-13T15:57:02;0.80;;;0.80;;
2892;SDS011;1456;51.840;12.184;2022-12-13T15:59:39;0.60;;;0.60;;
2892;SDS011;1456;51.840;12.184;2022-12-13T16:02:24;1.57;;;1.47;;
2892;SDS011;1456;51.840;12.184;2022-12-13T16:04:52;0.90;;;0.90;;
2892;SDS011;1456;51.840;12.184;2022-12-13T16:07:28;0.60;;;0.60;;
2892;SDS011;1456;51.840;12.184;2022-12-13T16:10:03;1.83;;;1.13;;
2892;SDS011;1456;51.840;12.184;2022-12-13T16:12:35;0.63;;;0.63;;
2892;SDS011;1456;51.840;12.184;2022-12-13T16:15:21;1.03;;;0.97;;
2892;SDS011;1456;51.840;12.184;2022-12-13T16:20:36;1.13;;;1.07;;
2892;SDS011;1456;51.840;12.184;2022-12-13T16:23:01;0.60;;;0.60;;
2892;SDS011;1456;51.840;12.184;2022-12-13T16:25:29;1.60;;;1.50;;
2892;SDS011;1456;51.840;12.184;2022-12-13T16:27:57;1.77;;;1.67;;
2892;SDS011;1456;51.840;12.184;2022-12-13T16:33:21;0.93;;;0.93;;
2892;SDS011;1456;51.840;12.184;2022-12-13T16:35:50;2.97;;;0.97;;
2892;SDS011;1456;51.840;12.184;2022-12-13T16:38:18;1.13;;;1.07;;
2892;SDS011;1456;51.840;12.184;2022-12-13T16:40:47;2.20;;;2.10;;
2892;SDS011;1456;51.840;12.184;2022-12-13T16:43:25;0.60;;;0.60;;
2892;SDS011;1456;51.840;12.184;2022-12-13T16:45:53;1.93;;;1.83;;
2892;SDS011;1456;51.840;12.184;2022-12-13T16:48:20;1.63;;;1.63;;
2892;SDS011;1456;51.840;12.184;2022-12-13T16:50:50;1.87;;;1.87;;
2892;SDS011;1456;51.840;12.184;2022-12-13T16:53:17;1.20;;;1.10;;
2892;SDS011;1456;51.840;12.184;2022-12-13T16:55:44;1.67;;;1.60;;
2892;SDS011;1456;51.840;12.184;2022-12-13T16:58:11;2.03;;;2.03;;
2892;SDS011;1456;51.840;12.184;2022-12-13T17:00:38;1.30;;;1.13;;
2892;SDS011;1456;51.840;12.184;2022-12-13T17:03:05;4.93;;;4.50;;
2892;SDS011;1456;51.840;12.184;2022-12-13T17:05:32;0.70;;;0.70;;
2892;SDS011;1456;51.840;12.184;2022-12-13T17:08:02;4.47;;;4.27;;
2892;SDS011;1456;51.840;12.184;2022-12-13T17:10:29;1.40;;;1.30;;
2892;SDS011;1456;51.840;12.184;2022-12-13T17:12:55;0.50;;;0.50;;
2892;SDS011;1456;51.840;12.184;2022-12-13T17:15:23;2.53;;;2.10;;
2892;SDS011;1456;51.840;12.184;2022-12-13T17:17:49;2.10;;;2.00;;
2892;SDS011;1456;51.840;12.184;2022-12-13T17:20:16;0.50;;;0.50;;
2892;SDS011;1456;51.840;12.184;2022-12-13T17:22:43;0.63;;;0.63;;
2892;SDS011;1456;51.840;12.184;2022-12-13T17:25:11;3.40;;;2.67;;
2892;SDS011;1456;51.840;12.184;2022-12-13T17:27:38;1.80;;;1.70;;
2892;SDS011;1456;51.840;12.184;2022-12-13T17:30:05;0.70;;;0.70;;
2892;SDS011;1456;51.840;12.184;2022-12-13T17:32:35;0.90;;;0.90;;
2892;SDS011;1456;51.840;12.184;2022-12-13T17:35:02;0.70;;;0.70;;
2892;SDS011;1456;51.840;12.184;2022-12-13T17:37:29;1.97;;;1.50;;
2892;SDS011;1456;51.840;12.184;2022-12-13T17:39:56;1.87;;;1.87;;
2892;SDS011;1456;51.840;12.184;2022-12-13T17:42:31;3.13;;;1.23;;
2892;SDS011;1456;51.840;12.184;2022-12-13T17:44:59;1.60;;;1.60;;
2892;SDS011;1456;51.840;12.184;2022-12-13T17:47:25;0.70;;;0.70;;
2892;SDS011;1456;51.840;12.184;2022-12-13T17:49:57;2.40;;;2.37;;
2892;SDS011;1456;51.840;12.184;2022-12-13T17:52:28;0.83;;;0.83;;
2892;SDS011;1456;51.840;12.184;2022-12-13T17:54:55;0.67;;;0.67;;
2892;SDS011;1456;51.840;12.184;2022-12-13T17:57:21;1.07;;;1.07;;
2892;SDS011;1456;51.840;12.184;2022-12-13T17:59:46;3.27;;;3.07;;
2892;SDS011;1456;51.840;12.184;2022-12-13T18:02:12;1.17;;;1.17;;
2892;SDS011;1456;51.840;12.184;2022-12-13T18:04:41;4.63;;;4.43;;
2892;SDS011;1456;51.840;12.184;2022-12-13T18:07:10;1.00;;;1.00;;
2892;SDS011;1456;51.840;12.184;2022-12-13T18:09:35;0.90;;;0.90;;
2892;SDS011;1456;51.840;12.184;2022-12-13T18:12:03;2.03;;;1.93;;
2892;SDS011;1456;51.840;12.184;2022-12-13T18:17:00;2.00;;;1.90;;
2892;SDS011;1456;51.840;12.184;2022-12-13T18:19:32;4.83;;;4.40;;
2892;SDS011;1456;51.840;12.184;2022-12-13T18:21:58;3.47;;;3.27;;
2892;SDS011;1456;51.840;12.184;2022-12-13T18:24:28;0.53;;;0.53;;
2892;SDS011;1456;51.840;12.184;2022-12-13T18:26:54;4.43;;;4.13;;
2892;SDS011;1456;51.840;12.184;2022-12-13T18:29:19;0.63;;;0.63;;